sensor_id;sensor_type;location;lat;lon;timestamp;pressure;altitude;pressure_sealevel;temperature;humidity
69214;BME280;56325;47.030;18.518;2023-01-13T00:00:12;100895.66;;;2.63;97.34
69214;BME280;56325;47.030;18.518;2023-01-13T00:02:47;100897.25;;;2.50;97.60
69214;BME280;56325;47.030;18.518;2023-01-13T00:05:23;100899.16;;;2.75;96.09
69214;BME280;56325;47.030;18.518;2023-01-13T00:07:58;100908.06;;;2.72;95.79
69214;BME280;56325;47.030;18.518;2023-01-13T00:10:32;100901.87;;;2.75;95.88
69214;BME280;56325;47.030;18.518;2023-01-13T00:13:08;100897.59;;;2.74;95.70
69214;BME280;56325;47.030;18.518;2023-01-13T00:15:42;100904.19;;;2.73;95.79
69214;BME280;56325;47.030;18.518;2023-01-13T00:18:17;100901.87;;;2.64;96.37
69214;BME280;56325;47.030;18.518;2023-01-13T00:20:59;100904.19;;;2.73;96.12
69214;BME280;56325;47.030;18.518;2023-01-13T00:23:34;100904.56;;;2.71;95.55
69214;BME280;56325;47.030;18.518;2023-01-13T00:26:10;100904.19;;;2.66;95.82
69214;BME280;56325;47.030;18.518;2023-01-13T00:28:45;100899.53;;;2.77;96.38
69214;BME280;56325;47.030;18.518;2023-01-13T00:31:19;100897.22;;;2.68;96.94
69214;BME280;56325;47.030;18.518;2023-01-13T00:33:55;100891.37;;;2.80;97.03
69214;BME280;56325;47.030;18.518;2023-01-13T00:36:31;100898.75;;;2.76;97.55
69214;BME280;56325;47.030;18.518;2023-01-13T00:39:06;100887.13;;;2.79;97.43
69214;BME280;56325;47.030;18.518;2023-01-13T00:41:40;100885.50;;;3.21;100.00
69214;BME280;56325;47.030;18.518;2023-01-13T00:44:32;100882.62;;;3.60;100.00
69214;BME280;56325;47.030;18.518;2023-01-13T00:47:06;100873.88;;;3.13;96.42
69214;BME280;56325;47.030;18.518;2023-01-13T00:49:41;100887.09;;;2.93;96.17
69214;BME280;56325;47.030;18.518;2023-01-13T00:52:17;100887.13;;;2.86;96.19
69214;BME280;56325;47.030;18.518;2023-01-13T00:54:51;100884.00;;;2.84;96.02
69214;BME280;56325;47.030;18.518;2023-01-13T00:57:26;100888.66;;;2.80;96.27
69214;BME280;56325;47.030;18.518;2023-01-13T01:00:01;100892.56;;;2.69;96.96
69214;BME280;56325;47.030;18.518;2023-01-13T01:02:35;100892.94;;;2.67;97.46
69214;BME280;56325;47.030;18.518;2023-01-13T01:05:10;100888.72;;;2.59;97.92
69214;BME280;56325;47.030;18.518;2023-01-13T01:07:45;100883.25;;;2.70;97.77
69214;BME280;56325;47.030;18.518;2023-01-13T01:10:21;100893.72;;;2.68;97.81
69214;BME280;56325;47.030;18.518;2023-01-13T01:12:55;100889.47;;;2.59;97.61
69214;BME280;56325;47.030;18.518;2023-01-13T01:15:30;100890.63;;;2.69;97.50
69214;BME280;56325;47.030;18.518;2023-01-13T01:18:04;100880.53;;;2.66;97.23
69214;BME280;56325;47.030;18.518;2023-01-13T01:20:39;100879.75;;;2.62;97.22
69214;BME280;56325;47.030;18.518;2023-01-13T01:23:14;100873.16;;;2.74;96.95
69214;BME280;56325;47.030;18.518;2023-01-13T01:25:49;100858.41;;;2.78;96.29
69214;BME280;56325;47.030;18.518;2023-01-13T01:28:23;100849.09;;;2.83;96.03
69214;BME280;56325;47.030;18.518;2023-01-13T01:30:58;100840.16;;;2.82;96.10
69214;BME280;56325;47.030;18.518;2023-01-13T01:33:34;100837.44;;;2.93;96.05
69214;BME280;56325;47.030;18.518;2023-01-13T01:36:10;100836.63;;;3.00;95.61
69214;BME280;56325;47.030;18.518;2023-01-13T01:38:46;100843.63;;;2.93;95.82
69214;BME280;56325;47.030;18.518;2023-01-13T01:41:24;100824.25;;;2.88;96.30
69214;BME280;56325;47.030;18.518;2023-01-13T01:44:01;100833.16;;;2.88;96.30
69214;BME280;56325;47.030;18.518;2023-01-13T01:46:40;100823.47;;;2.91;96.38
69214;BME280;56325;47.030;18.518;2023-01-13T01:49:18;100823.47;;;2.91;96.36
69214;BME280;56325;47.030;18.518;2023-01-13T01:51:55;100829.69;;;2.81;96.39
69214;BME280;56325;47.030;18.518;2023-01-13T01:54:38;100825.81;;;2.89;97.06
69214;BME280;56325;47.030;18.518;2023-01-13T01:57:17;100825.75;;;3.10;96.19
69214;BME280;56325;47.030;18.518;2023-01-13T01:59:53;100819.16;;;3.04;95.87
69214;BME280;56325;47.030;18.518;2023-01-13T02:02:29;100818.38;;;3.04;95.92
69214;BME280;56325;47.030;18.518;2023-01-13T02:05:05;100807.91;;;3.06;96.02
69214;BME280;56325;47.030;18.518;2023-01-13T02:07:41;100808.69;;;2.99;96.64
69214;BME280;56325;47.030;18.518;2023-01-13T02:10:21;100797.09;;;2.88;97.23
69214;BME280;56325;47.030;18.518;2023-01-13T02:12:58;100801.72;;;2.94;97.35
69214;BME280;56325;47.030;18.518;2023-01-13T02:15:37;100801.38;;;2.82;97.69
69214;BME280;56325;47.030;18.518;2023-01-13T02:18:29;100807.97;;;2.84;97.87
69214;BME280;56325;47.030;18.518;2023-01-13T02:21:40;100806.78;;;2.89;97.50
69214;BME280;56325;47.030;18.518;2023-01-13T02:24:38;100807.94;;;2.95;97.15
69214;BME280;56325;47.030;18.518;2023-01-13T02:27:40;100801.69;;;3.09;96.13
69214;BME280;56325;47.030;18.518;2023-01-13T02:30:25;100795.84;;;3.10;95.75
69214;BME280;56325;47.030;18.518;2023-01-13T02:33:40;100804.81;;;3.04;95.77
69214;BME280;56325;47.030;18.518;2023-01-13T02:36:26;100806.00;;;2.95;96.66
69214;BME280;56325;47.030;18.518;2023-01-13T02:39:06;100798.25;;;2.87;97.37
69214;BME280;56325;47.030;18.518;2023-01-13T02:41:47;100796.28;;;2.94;97.33
69214;BME280;56325;47.030;18.518;2023-01-13T02:44:44;100797.06;;;2.99;97.51
69214;BME280;56325;47.030;18.518;2023-01-13T02:47:24;100785.81;;;3.00;97.58
69214;BME280;56325;47.030;18.518;2023-01-13T02:50:01;100786.94;;;3.10;97.16
69214;BME280;56325;47.030;18.518;2023-01-13T02:52:40;100781.91;;;3.05;96.98
69214;BME280;56325;47.030;18.518;2023-01-13T02:55:18;100778.41;;;3.01;97.23
69214;BME280;56325;47.030;18.518;2023-01-13T02:57:55;100782.69;;;3.05;97.19
69214;BME280;56325;47.030;18.518;2023-01-13T03:00:32;100779.97;;;3.05;97.15
69214;BME280;56325;47.030;18.518;2023-01-13T03:03:09;100774.09;;;3.14;96.45
69214;BME280;56325;47.030;18.518;2023-01-13T03:05:46;100780.69;;;3.20;96.10
69214;BME280;56325;47.030;18.518;2023-01-13T03:08:32;100777.59;;;3.14;96.00
69214;BME280;56325;47.030;18.518;2023-01-13T03:11:16;100777.59;;;3.14;95.83
69214;BME280;56325;47.030;18.518;2023-01-13T03:14:00;100774.12;;;3.10;95.99
69214;BME280;56325;47.030;18.518;2023-01-13T03:16:48;100763.63;;;3.09;95.82
69214;BME280;56325;47.030;18.518;2023-01-13T03:19:34;100758.19;;;3.12;95.66
69214;BME280;56325;47.030;18.518;2023-01-13T03:22:17;100762.09;;;3.04;95.82
69214;BME280;56325;47.030;18.518;2023-01-13T03:24:56;100756.69;;;3.04;96.32
69214;BME280;56325;47.030;18.518;2023-01-13T03:27:40;100755.16;;;2.92;96.78
69214;BME280;56325;47.030;18.518;2023-01-13T03:30:19;100753.22;;;2.93;97.17
69214;BME280;56325;47.030;18.518;2023-01-13T03:32:59;100752.81;;;2.94;97.10
69214;BME280;56325;47.030;18.518;2023-01-13T03:35:38;100754.00;;;2.90;97.49
69214;BME280;56325;47.030;18.518;2023-01-13T03:38:16;100747.41;;;2.94;97.37
69214;BME280;56325;47.030;18.518;2023-01-13T03:40:55;100756.31;;;2.95;97.39
69214;BME280;56325;47.030;18.518;2023-01-13T03:43:33;100759.00;;;3.02;96.60
69214;BME280;56325;47.030;18.518;2023-01-13T03:46:32;100753.59;;;2.99;96.43
69214;BME280;56325;47.030;18.518;2023-01-13T03:49:14;100756.25;;;3.09;96.40
69214;BME280;56325;47.030;18.518;2023-01-13T03:51:54;100759.00;;;3.02;95.90
69214;BME280;56325;47.030;18.518;2023-01-13T03:54:32;100760.53;;;3.10;96.52
69214;BME280;56325;47.030;18.518;2023-01-13T03:57:13;100759.75;;;3.13;95.90
69214;BME280;56325;47.030;18.518;2023-01-13T03:59:54;100759.69;;;3.27;94.83
69214;BME280;56325;47.030;18.518;2023-01-13T04:02:40;100760.47;;;3.24;94.55
69214;BME280;56325;47.030;18.518;2023-01-13T04:05:18;100756.63;;;3.18;94.54
69214;BME280;56325;47.030;18.518;2023-01-13T04:07:59;100741.09;;;3.15;94.68
69214;BME280;56325;47.030;18.518;2023-01-13T04:10:45;100752.00;;;3.05;95.65
69214;BME280;56325;47.030;18.518;2023-01-13T04:13:26;100754.31;;;3.10;96.40
69214;BME280;56325;47.030;18.518;2023-01-13T04:16:04;100751.97;;;3.15;96.18
69214;BME280;56325;47.030;18.518;2023-01-13T04:18:39;100737.19;;;3.23;95.71
69214;BME280;56325;47.030;18.518;2023-01-13T04:21:14;100751.53;;;3.27;95.60
69214;BME280;56325;47.030;18.518;2023-01-13T04:23:49;100748.34;;;3.40;94.80
69214;BME280;56325;47.030;18.518;2023-01-13T04:26:24;100753.41;;;3.38;94.67
69214;BME280;56325;47.030;18.518;2023-01-13T04:28:58;100754.94;;;3.42;94.15
69214;BME280;56325;47.030;18.518;2023-01-13T04:31:33;100756.44;;;3.47;93.65
69214;BME280;56325;47.030;18.518;2023-01-13T04:34:07;100747.12;;;3.48;93.99
69214;BME280;56325;47.030;18.518;2023-01-13T04:36:42;100761.03;;;3.57;93.86
69214;BME280;56325;47.030;18.518;2023-01-13T04:39:19;100752.50;;;3.58;92.99
69214;BME280;56325;47.030;18.518;2023-01-13T04:41:53;100761.78;;;3.65;92.65
69214;BME280;56325;47.030;18.518;2023-01-13T04:44:31;100754.09;;;3.49;92.88
69214;BME280;56325;47.030;18.518;2023-01-13T04:47:07;100754.09;;;3.49;93.65
69214;BME280;56325;47.030;18.518;2023-01-13T04:49:41;100750.97;;;3.50;93.25
69214;BME280;56325;47.030;18.518;2023-01-13T04:52:16;100748.28;;;3.47;93.71
69214;BME280;56325;47.030;18.518;2023-01-13T04:54:52;100743.19;;;3.56;93.53
69214;BME280;56325;47.030;18.518;2023-01-13T04:57:26;100748.19;;;3.65;92.87
69214;BME280;56325;47.030;18.518;2023-01-13T05:00:01;100747.34;;;3.71;92.69
69214;BME280;56325;47.030;18.518;2023-01-13T05:02:36;100748.16;;;3.68;92.39
69214;BME280;56325;47.030;18.518;2023-01-13T05:05:11;100749.31;;;3.71;92.82
69214;BME280;56325;47.030;18.518;2023-01-13T05:07:45;100753.62;;;3.61;92.59
69214;BME280;56325;47.030;18.518;2023-01-13T05:10:21;100746.66;;;3.56;92.83
69214;BME280;56325;47.030;18.518;2023-01-13T05:12:56;100732.94;;;7.08;100.00
69214;BME280;56325;47.030;18.518;2023-01-13T05:15:47;100747.88;;;6.64;100.00
69214;BME280;56325;47.030;18.518;2023-01-13T05:18:43;100758.19;;;5.28;100.00
69214;BME280;56325;47.030;18.518;2023-01-13T05:21:18;100761.38;;;4.59;98.61
69214;BME280;56325;47.030;18.518;2023-01-13T05:24:10;100755.03;;;8.02;100.00
69214;BME280;56325;47.030;18.518;2023-01-13T05:27:03;100761.47;;;6.67;100.00
69214;BME280;56325;47.030;18.518;2023-01-13T05:29:38;100772.47;;;5.40;95.05
69214;BME280;56325;47.030;18.518;2023-01-13T05:32:12;100779.78;;;4.85;92.84
69214;BME280;56325;47.030;18.518;2023-01-13T05:34:46;100774.31;;;4.48;91.61
69214;BME280;56325;47.030;18.518;2023-01-13T05:37:21;100789.37;;;4.18;91.33
69214;BME280;56325;47.030;18.518;2023-01-13T05:39:56;100786.37;;;4.06;91.24
69214;BME280;56325;47.030;18.518;2023-01-13T05:42:59;100778.72;;;5.67;100.00
69214;BME280;56325;47.030;18.518;2023-01-13T05:45:55;100778.38;;;6.82;100.00
69214;BME280;56325;47.030;18.518;2023-01-13T05:48:31;100786.72;;;4.90;94.25
69214;BME280;56325;47.030;18.518;2023-01-13T05:51:08;100772.50;;;7.92;100.00
69214;BME280;56325;47.030;18.518;2023-01-13T05:53:43;100782.34;;;6.34;96.86
69214;BME280;56325;47.030;18.518;2023-01-13T05:56:18;100791.84;;;5.18;89.71
69214;BME280;56325;47.030;18.518;2023-01-13T05:58:53;100794.97;;;4.83;89.32
69214;BME280;56325;47.030;18.518;2023-01-13T06:01:28;100789.13;;;4.43;89.86
69214;BME280;56325;47.030;18.518;2023-01-13T06:04:03;100785.09;;;4.17;89.99
69214;BME280;56325;47.030;18.518;2023-01-13T06:06:37;100788.69;;;4.07;90.47
69214;BME280;56325;47.030;18.518;2023-01-13T06:09:12;100785.63;;;3.98;90.95
69214;BME280;56325;47.030;18.518;2023-01-13T06:11:47;100779.78;;;4.03;91.28
69214;BME280;56325;47.030;18.518;2023-01-13T06:14:23;100774.00;;;3.94;91.06
69214;BME280;56325;47.030;18.518;2023-01-13T06:16:58;100781.12;;;3.77;91.91
69214;BME280;56325;47.030;18.518;2023-01-13T06:19:34;100781.12;;;3.77;91.33
69214;BME280;56325;47.030;18.518;2023-01-13T06:22:12;100757.19;;;7.06;100.00
69214;BME280;56325;47.030;18.518;2023-01-13T06:24:49;100765.06;;;6.41;100.00
69214;BME280;56325;47.030;18.518;2023-01-13T06:27:25;100777.66;;;5.00;97.63
69214;BME280;56325;47.030;18.518;2023-01-13T06:30:01;100774.25;;;4.55;93.02
69214;BME280;56325;47.030;18.518;2023-01-13T06:32:39;100769.91;;;4.20;91.89
69214;BME280;56325;47.030;18.518;2023-01-13T06:35:19;100774.66;;;4.12;91.96
69214;BME280;56325;47.030;18.518;2023-01-13T06:37:57;100773.97;;;4.01;91.62
69214;BME280;56325;47.030;18.518;2023-01-13T06:40:32;100777.56;;;3.87;92.51
69214;BME280;56325;47.030;18.518;2023-01-13T06:43:07;100778.66;;;3.97;92.72
69214;BME280;56325;47.030;18.518;2023-01-13T06:45:51;100776.34;;;3.95;91.99
69214;BME280;56325;47.030;18.518;2023-01-13T06:48:29;100785.31;;;3.89;92.72
69214;BME280;56325;47.030;18.518;2023-01-13T06:51:07;100783.41;;;3.86;92.29
69214;BME280;56325;47.030;18.518;2023-01-13T06:53:41;100769.78;;;3.86;92.55
69214;BME280;56325;47.030;18.518;2023-01-13T06:56:16;100771.00;;;3.81;91.72
69214;BME280;56325;47.030;18.518;2023-01-13T06:58:50;100774.88;;;3.80;91.70
69214;BME280;56325;47.030;18.518;2023-01-13T07:02:53;100776.06;;;3.79;92.33
69214;BME280;56325;47.030;18.518;2023-01-13T07:05:40;100779.53;;;3.83;91.94
69214;BME280;56325;47.030;18.518;2023-01-13T07:08:15;100791.25;;;3.73;91.52
69214;BME280;56325;47.030;18.518;2023-01-13T07:10:50;100780.03;;;3.64;92.56
69214;BME280;56325;47.030;18.518;2023-01-13T07:13:25;100781.91;;;3.74;92.20
69214;BME280;56325;47.030;18.518;2023-01-13T07:16:17;100781.12;;;3.77;91.72
69214;BME280;56325;47.030;18.518;2023-01-13T07:18:53;100787.41;;;3.63;92.03
69214;BME280;56325;47.030;18.518;2023-01-13T07:21:28;100790.97;;;3.53;92.75
69214;BME280;56325;47.030;18.518;2023-01-13T07:24:02;100785.87;;;3.62;92.56
69214;BME280;56325;47.030;18.518;2023-01-13T07:26:37;100788.63;;;3.55;93.06
69214;BME280;56325;47.030;18.518;2023-01-13T07:29:11;100798.31;;;3.63;93.88
69214;BME280;56325;47.030;18.518;2023-01-13T07:31:46;100789.69;;;3.76;94.03
69214;BME280;56325;47.030;18.518;2023-01-13T07:34:23;100788.84;;;3.82;93.11
69214;BME280;56325;47.030;18.518;2023-01-13T07:36:57;100801.28;;;3.87;92.92
69214;BME280;56325;47.030;18.518;2023-01-13T07:39:32;100791.38;;;5.23;100.00
69214;BME280;56325;47.030;18.518;2023-01-13T07:42:07;100779.56;;;7.20;100.00
69214;BME280;56325;47.030;18.518;2023-01-13T07:44:59;100792.75;;;5.39;98.91
69214;BME280;56325;47.030;18.518;2023-01-13T07:47:34;100795.12;;;4.69;92.24
69214;BME280;56325;47.030;18.518;2023-01-13T07:50:10;100797.06;;;4.31;91.11
69214;BME280;56325;47.030;18.518;2023-01-13T07:52:45;100798.41;;;4.08;91.34
69214;BME280;56325;47.030;18.518;2023-01-13T07:55:19;100805.12;;;3.93;91.60
69214;BME280;56325;47.030;18.518;2023-01-13T07:57:54;100796.34;;;3.64;92.88
69214;BME280;56325;47.030;18.518;2023-01-13T08:00:29;100802.22;;;3.59;93.51
69214;BME280;56325;47.030;18.518;2023-01-13T08:03:04;100799.44;;;3.66;92.79
69214;BME280;56325;47.030;18.518;2023-01-13T08:05:40;100809.19;;;3.63;93.83
69214;BME280;56325;47.030;18.518;2023-01-13T08:08:15;100800.63;;;3.65;93.67
69214;BME280;56325;47.030;18.518;2023-01-13T08:10:49;100802.09;;;3.80;92.80
69214;BME280;56325;47.030;18.518;2023-01-13T08:13:24;100802.09;;;3.77;92.67
69214;BME280;56325;47.030;18.518;2023-01-13T08:16:00;100799.44;;;3.66;93.35
69214;BME280;56325;47.030;18.518;2023-01-13T08:18:36;100785.34;;;7.42;100.00
69214;BME280;56325;47.030;18.518;2023-01-13T08:21:13;100798.38;;;5.24;99.17
69214;BME280;56325;47.030;18.518;2023-01-13T08:23:48;100795.25;;;4.54;91.84
69214;BME280;56325;47.030;18.518;2023-01-13T08:26:22;100802.38;;;4.41;92.21
69214;BME280;56325;47.030;18.518;2023-01-13T08:28:57;100804.72;;;4.39;91.54
69214;BME280;56325;47.030;18.518;2023-01-13T08:31:31;100801.78;;;4.23;90.72
69214;BME280;56325;47.030;18.518;2023-01-13T08:34:06;100800.75;;;4.06;91.55
69214;BME280;56325;47.030;18.518;2023-01-13T08:36:42;100813.25;;;3.97;91.83
69214;BME280;56325;47.030;18.518;2023-01-13T08:39:17;100813.28;;;3.89;92.77
69214;BME280;56325;47.030;18.518;2023-01-13T08:41:51;100811.38;;;3.86;93.36
69214;BME280;56325;47.030;18.518;2023-01-13T08:44:30;100799.31;;;6.69;100.00
69214;BME280;56325;47.030;18.518;2023-01-13T08:47:05;100809.53;;;6.18;100.00
69214;BME280;56325;47.030;18.518;2023-01-13T08:49:40;100816.06;;;5.13;91.97
69214;BME280;56325;47.030;18.518;2023-01-13T08:52:15;100822.25;;;4.79;92.12
69214;BME280;56325;47.030;18.518;2023-01-13T08:54:50;100818.62;;;4.52;92.66
69214;BME280;56325;47.030;18.518;2023-01-13T08:57:24;100824.81;;;4.56;92.47
69214;BME280;56325;47.030;18.518;2023-01-13T09:00:00;100827.06;;;4.65;91.58
69214;BME280;56325;47.030;18.518;2023-01-13T09:02:37;100834.25;;;4.44;93.15
69214;BME280;56325;47.030;18.518;2023-01-13T09:05:11;100839.28;;;4.49;93.14
69214;BME280;56325;47.030;18.518;2023-01-13T09:07:50;100840.37;;;4.55;92.29
69214;BME280;56325;47.030;18.518;2023-01-13T09:10:25;100839.56;;;4.58;92.23
69214;BME280;56325;47.030;18.518;2023-01-13T09:12:59;100834.09;;;4.62;92.38
69214;BME280;56325;47.030;18.518;2023-01-13T09:15:45;100839.84;;;4.71;91.66
69214;BME280;56325;47.030;18.518;2023-01-13T09:18:20;100846.47;;;4.70;92.75
69214;BME280;56325;47.030;18.518;2023-01-13T09:20:55;100851.09;;;4.77;92.02
69214;BME280;56325;47.030;18.518;2023-01-13T09:23:33;100841.59;;;6.14;100.00
69214;BME280;56325;47.030;18.518;2023-01-13T09:26:08;100818.16;;;8.47;100.00
69214;BME280;56325;47.030;18.518;2023-01-13T09:28:42;100815.16;;;6.97;89.74
69214;BME280;56325;47.030;18.518;2023-01-13T09:31:17;100811.97;;;6.12;88.16
69214;BME280;56325;47.030;18.518;2023-01-13T09:33:51;100814.75;;;5.55;89.62
69214;BME280;56325;47.030;18.518;2023-01-13T09:36:44;100824.72;;;5.35;89.79
69214;BME280;56325;47.030;18.518;2023-01-13T09:39:19;100812.00;;;5.24;91.24
69214;BME280;56325;47.030;18.518;2023-01-13T09:41:57;100800.81;;;5.19;90.59
69214;BME280;56325;47.030;18.518;2023-01-13T09:44:57;100800.47;;;5.13;91.50
69214;BME280;56325;47.030;18.518;2023-01-13T09:47:43;100797.88;;;5.03;91.07
69214;BME280;56325;47.030;18.518;2023-01-13T09:50:23;100797.16;;;4.99;91.60
69214;BME280;56325;47.030;18.518;2023-01-13T09:53:00;100790.47;;;5.03;91.85
69214;BME280;56325;47.030;18.518;2023-01-13T09:55:36;100786.59;;;5.01;92.03
69214;BME280;56325;47.030;18.518;2023-01-13T09:58:12;100798.66;;;5.03;91.49
69214;BME280;56325;47.030;18.518;2023-01-13T10:00:59;100793.72;;;5.21;91.13
69214;BME280;56325;47.030;18.518;2023-01-13T10:03:35;100796.37;;;5.28;91.46
69214;BME280;56325;47.030;18.518;2023-01-13T10:06:12;100793.59;;;5.32;91.45
69214;BME280;56325;47.030;18.518;2023-01-13T10:08:49;100787.56;;;5.48;90.84
69214;BME280;56325;47.030;18.518;2023-01-13T10:11:29;100789.37;;;5.85;89.26
69214;BME280;56325;47.030;18.518;2023-01-13T10:14:25;100802.31;;;5.81;88.97
69214;BME280;56325;47.030;18.518;2023-01-13T10:17:07;100813.09;;;5.91;88.72
69214;BME280;56325;47.030;18.518;2023-01-13T10:19:49;100806.25;;;5.76;87.59
69214;BME280;56325;47.030;18.518;2023-01-13T10:22:49;100813.06;;;5.65;88.19
69214;BME280;56325;47.030;18.518;2023-01-13T10:25:38;100825.41;;;5.42;89.05
69214;BME280;56325;47.030;18.518;2023-01-13T10:28:17;100819.38;;;5.58;89.54
69214;BME280;56325;47.030;18.518;2023-01-13T10:30:52;100813.00;;;5.68;90.00
69214;BME280;56325;47.030;18.518;2023-01-13T10:33:27;100816.41;;;5.76;88.98
69214;BME280;56325;47.030;18.518;2023-01-13T10:36:03;100813.72;;;5.72;89.57
69214;BME280;56325;47.030;18.518;2023-01-13T10:38:48;100811.78;;;5.73;88.85
69214;BME280;56325;47.030;18.518;2023-01-13T10:41:24;100807.34;;;5.82;89.58
69214;BME280;56325;47.030;18.518;2023-01-13T10:44:02;100796.94;;;5.74;88.89
69214;BME280;56325;47.030;18.518;2023-01-13T10:46:51;100803.53;;;5.76;89.13
69214;BME280;56325;47.030;18.518;2023-01-13T10:49:29;100799.56;;;5.81;88.42
69214;BME280;56325;47.030;18.518;2023-01-13T10:52:23;100804.56;;;5.86;88.45
69214;BME280;56325;47.030;18.518;2023-01-13T10:54:58;100780.75;;;5.90;88.69
69214;BME280;56325;47.030;18.518;2023-01-13T10:57:35;100756.91;;;8.53;100.00
69214;BME280;56325;47.030;18.518;2023-01-13T11:00:25;100760.34;;;7.76;93.87
69214;BME280;56325;47.030;18.518;2023-01-13T11:03:16;100759.75;;;6.77;86.87
69214;BME280;56325;47.030;18.518;2023-01-13T11:05:52;100763.56;;;6.60;87.60
69214;BME280;56325;47.030;18.518;2023-01-13T11:08:29;100750.41;;;6.31;87.03
69214;BME280;56325;47.030;18.518;2023-01-13T11:11:24;100760.16;;;6.32;86.47
69214;BME280;56325;47.030;18.518;2023-01-13T11:14:01;100751.97;;;6.09;87.58
69214;BME280;56325;47.030;18.518;2023-01-13T11:16:59;100748.87;;;6.07;87.65
69214;BME280;56325;47.030;18.518;2023-01-13T11:19:40;100745.59;;;6.15;87.27
69214;BME280;56325;47.030;18.518;2023-01-13T11:22:19;100737.94;;;6.07;88.08
69214;BME280;56325;47.030;18.518;2023-01-13T11:24:59;100744.00;;;6.18;87.35
69214;BME280;56325;47.030;18.518;2023-01-13T11:27:39;100730.78;;;6.16;87.35
69214;BME280;56325;47.030;18.518;2023-01-13T11:30:24;100724.34;;;6.27;87.49
69214;BME280;56325;47.030;18.518;2023-01-13T11:33:16;100721.37;;;6.17;87.60
69214;BME280;56325;47.030;18.518;2023-01-13T11:36:04;100717.12;;;6.16;87.88
69214;BME280;56325;47.030;18.518;2023-01-13T11:38:43;100722.88;;;6.22;86.57
69214;BME280;56325;47.030;18.518;2023-01-13T11:41:29;100719.19;;;6.09;87.62
69214;BME280;56325;47.030;18.518;2023-01-13T11:44:12;100718.25;;;6.19;86.59
69214;BME280;56325;47.030;18.518;2023-01-13T11:46:50;100713.38;;;6.07;87.77
69214;BME280;56325;47.030;18.518;2023-01-13T11:49:29;100710.34;;;7.40;100.00
69214;BME280;56325;47.030;18.518;2023-01-13T11:52:15;100699.41;;;9.80;100.00
69214;BME280;56325;47.030;18.518;2023-01-13T11:55:02;100690.53;;;7.84;85.64
69214;BME280;56325;47.030;18.518;2023-01-13T12:01:02;100694.53;;;6.95;86.37
69214;BME280;56325;47.030;18.518;2023-01-13T12:03:42;100686.50;;;6.88;86.41
69214;BME280;56325;47.030;18.518;2023-01-13T12:06:29;100681.53;;;6.83;85.87
69214;BME280;56325;47.030;18.518;2023-01-13T12:09:17;100678.50;;;6.57;85.90
69214;BME280;56325;47.030;18.518;2023-01-13T12:12:01;100665.69;;;6.54;86.39
69214;BME280;56325;47.030;18.518;2023-01-13T12:18:42;100648.38;;;6.41;86.31
69214;BME280;56325;47.030;18.518;2023-01-13T12:21:23;100654.41;;;6.52;86.60
69214;BME280;56325;47.030;18.518;2023-01-13T12:24:04;100640.81;;;6.29;86.91
69214;BME280;56325;47.030;18.518;2023-01-13T12:26:47;100635.56;;;6.38;86.57
69214;BME280;56325;47.030;18.518;2023-01-13T12:29:29;100641.94;;;6.51;86.36
69214;BME280;56325;47.030;18.518;2023-01-13T12:32:06;100637.31;;;6.48;86.32
69214;BME280;56325;47.030;18.518;2023-01-13T12:34:57;100629.47;;;6.50;86.04
69214;BME280;56325;47.030;18.518;2023-01-13T12:37:36;100641.31;;;6.64;86.27
69214;BME280;56325;47.030;18.518;2023-01-13T12:40:36;100628.34;;;6.68;86.08
69214;BME280;56325;47.030;18.518;2023-01-13T12:43:16;100631.16;;;6.64;86.00
69214;BME280;56325;47.030;18.518;2023-01-13T12:49:30;100627.69;;;7.48;96.30
69214;BME280;56325;47.030;18.518;2023-01-13T12:52:14;100611.03;;;9.60;99.82
69214;BME280;56325;47.030;18.518;2023-01-13T12:55:17;100614.13;;;8.19;83.43
69214;BME280;56325;47.030;18.518;2023-01-13T12:58:12;100617.16;;;8.08;83.51
69214;BME280;56325;47.030;18.518;2023-01-13T13:01:00;100622.41;;;7.86;81.78
69214;BME280;56325;47.030;18.518;2023-01-13T13:03:39;100613.13;;;7.68;82.23
69214;BME280;56325;47.030;18.518;2023-01-13T13:06:17;100608.09;;;7.34;82.82
69214;BME280;56325;47.030;18.518;2023-01-13T13:09:00;100594.94;;;7.12;84.01
69214;BME280;56325;47.030;18.518;2023-01-13T13:11:40;100596.44;;;6.97;84.40
69214;BME280;56325;47.030;18.518;2023-01-13T13:14:58;100600.63;;;6.85;85.14
69214;BME280;56325;47.030;18.518;2023-01-13T13:17:44;100613.87;;;6.87;85.41
69214;BME280;56325;47.030;18.518;2023-01-13T13:20:58;100622.19;;;6.64;86.20
69214;BME280;56325;47.030;18.518;2023-01-13T13:23:39;100613.72;;;6.58;86.55
69214;BME280;56325;47.030;18.518;2023-01-13T13:35:21;100636.34;;;6.58;86.38
69214;BME280;56325;47.030;18.518;2023-01-13T13:38:10;100636.63;;;6.64;86.87
69214;BME280;56325;47.030;18.518;2023-01-13T13:41:12;100632.81;;;6.78;86.52
69214;BME280;56325;47.030;18.518;2023-01-13T13:44:12;100648.66;;;6.67;86.92
69214;BME280;56325;47.030;18.518;2023-01-13T13:47:07;100631.62;;;9.17;100.00
69214;BME280;56325;47.030;18.518;2023-01-13T13:49:42;100639.91;;;7.76;85.86
69214;BME280;56325;47.030;18.518;2023-01-13T13:52:21;100637.25;;;7.24;85.96
69214;BME280;56325;47.030;18.518;2023-01-13T13:55:06;100641.66;;;7.02;85.74
69214;BME280;56325;47.030;18.518;2023-01-13T13:57:45;100654.19;;;6.99;85.64
69214;BME280;56325;47.030;18.518;2023-01-13T14:00:25;100655.22;;;6.89;86.01
69214;BME280;56325;47.030;18.518;2023-01-13T14:03:05;100646.84;;;6.96;86.00
69214;BME280;56325;47.030;18.518;2023-01-13T14:05:52;100651.38;;;6.86;86.11
69214;BME280;56325;47.030;18.518;2023-01-13T14:08:29;100654.53;;;6.85;86.53
69214;BME280;56325;47.030;18.518;2023-01-13T14:11:24;100647.41;;;6.71;86.95
69214;BME280;56325;47.030;18.518;2023-01-13T14:14:03;100646.22;;;6.72;87.20
69214;BME280;56325;47.030;18.518;2023-01-13T14:16:39;100639.91;;;6.75;86.82